ZSPD/PVG METAR and TAF weather

Enter ICAO airport designator
Station Type Date Time Source
ZSPD METAR 2024/05/29 00:00 UTC NOAA

ZSPD 290000Z 11005MPS CAVOK 22/15 Q1013 NOSIG


Station Type Date Time Source
ZSPD Decoded METAR 2024/05/29 00:00 UTC NOAA

Shanghai / Pudong, China (ZSPD) 31-07N 121-46E
May 28, 2024 - 08:00 PM EDT / 2024.05.29 0000 UTC
Wind: from the ESE (110 degrees) at 11 MPH (10 KT):0
Visibility: greater than 7 mile(s):0
Temperature: 71 F (22 C)
Dew Point: 59 F (15 C)
Relative Humidity: 64%
Pressure (altimeter): 29.91 in. Hg (1013 hPa)
ob: ZSPD 290000Z 11005MPS CAVOK 22/15 Q1013 NOSIG
cycle: 0

Station Type Date Time Source
ZSPD TAF 2024/05/28 18:03 UTC NOAA